createdAt,value
2023-04-15T00:01:10.175Z,98965.00
2023-04-15T00:03:36.939Z,98965.63
2023-04-15T00:06:03.879Z,98963.84
2023-04-15T00:08:35.353Z,98971.72
2023-04-15T00:11:06.796Z,98972.44
2023-04-15T00:13:36.053Z,98963.25
2023-04-15T00:16:02.696Z,98967.00
2023-04-15T00:18:35.004Z,98972.63
2023-04-15T00:21:04.570Z,98976.94
2023-04-15T00:23:31.796Z,98965.97
2023-04-15T00:25:58.358Z,98956.34
2023-04-15T00:28:25.028Z,98957.38
2023-04-15T00:30:56.593Z,98962.56
2023-04-15T00:33:23.160Z,98956.53
2023-04-15T00:35:53.685Z,98951.94
2023-04-15T00:38:23.237Z,98957.28
2023-04-15T00:40:50.206Z,98952.44
2023-04-15T00:43:19.024Z,98954.34
2023-04-15T00:45:48.058Z,98963.06
2023-04-15T00:48:15.588Z,98959.00
2023-04-15T00:50:42.134Z,98965.06
2023-04-15T00:53:10.881Z,98961.63
2023-04-15T00:55:40.092Z,98956.66
2023-04-15T00:58:08.928Z,98947.47
2023-04-15T01:00:36.005Z,98951.13
2023-04-15T01:03:04.992Z,98945.78
2023-04-15T01:05:37.051Z,98950.03
2023-04-15T01:08:05.742Z,98948.31
2023-04-15T01:10:34.622Z,98956.25
2023-04-15T01:13:01.149Z,98941.59
2023-04-15T01:15:29.755Z,98938.59
2023-04-15T01:17:58.587Z,98940.19
2023-04-15T01:20:25.258Z,98942.47
2023-04-15T01:22:55.089Z,98944.38
2023-04-15T01:25:34.816Z,98938.78
2023-04-15T01:28:04.922Z,98940.88
2023-04-15T01:30:35.048Z,98946.28
2023-04-15T01:33:01.870Z,98939.78
2023-04-15T01:35:31.028Z,98949.78
2023-04-15T01:38:11.442Z,98945.63
2023-04-15T01:40:40.966Z,98943.84
2023-04-15T01:43:09.790Z,98954.44
2023-04-15T01:45:36.367Z,98953.13
2023-04-15T01:48:05.234Z,98945.66
2023-04-15T01:50:32.212Z,98943.31
2023-04-15T01:53:01.192Z,98946.31
2023-04-15T01:55:30.457Z,98943.25
2023-04-15T01:57:57.423Z,98945.97
2023-04-15T02:00:26.676Z,98947.84
2023-04-15T02:02:53.262Z,98955.84
2023-04-15T02:05:22.336Z,98948.59
2023-04-15T02:07:52.378Z,98947.13
2023-04-15T02:10:18.979Z,98948.69
2023-04-15T02:12:45.859Z,98953.09
2023-04-15T02:15:12.409Z,98947.25
2023-04-15T02:17:41.755Z,98946.91
2023-04-15T02:20:09.104Z,98952.34
2023-04-15T02:22:35.778Z,98964.19
2023-04-15T02:25:02.487Z,98961.38
2023-04-15T02:27:29.082Z,98955.69
2023-04-15T02:30:00.579Z,98964.16
2023-04-15T02:32:27.194Z,98960.91
2023-04-15T02:34:58.295Z,98956.78
2023-04-15T02:37:27.240Z,98965.53
2023-04-15T02:39:53.759Z,98968.28
2023-04-15T02:42:21.690Z,98957.44
2023-04-15T02:44:48.365Z,98962.56
2023-04-15T02:47:16.044Z,98959.09
2023-04-15T02:49:42.640Z,98955.75
2023-04-15T02:52:10.041Z,98951.50
2023-04-15T02:54:39.093Z,98955.91
2023-04-15T02:57:06.890Z,98956.47
2023-04-15T02:59:35.871Z,98948.50
2023-04-15T03:02:02.705Z,98951.06
2023-04-15T03:04:34.121Z,98945.44
2023-04-15T03:07:01.918Z,98954.31
2023-04-15T03:09:28.522Z,98954.19
2023-04-15T03:11:59.866Z,98959.13
2023-04-15T03:14:28.787Z,98950.88
2023-04-15T03:17:00.050Z,98956.13
2023-04-15T03:19:26.625Z,98949.22
2023-04-15T03:21:55.432Z,98949.34
2023-04-15T03:24:22.059Z,98953.59
2023-04-15T03:26:51.499Z,98944.50
2023-04-15T03:29:23.312Z,98944.25
2023-04-15T03:31:50.037Z,98949.06
2023-04-15T03:34:18.843Z,98950.03
2023-04-15T03:36:46.853Z,98950.69
2023-04-15T03:39:13.643Z,98948.03
2023-04-15T03:41:40.542Z,98949.06
2023-04-15T03:44:11.951Z,98952.41
2023-04-15T03:46:38.613Z,98949.13
2023-04-15T03:49:07.718Z,98943.47
2023-04-15T03:51:34.302Z,98943.94
2023-04-15T03:54:03.296Z,98944.06
2023-04-15T03:56:32.095Z,98944.84
2023-04-15T03:59:01.457Z,98942.16
2023-04-15T04:01:28.253Z,98944.72
2023-04-15T04:03:55.046Z,98949.72
2023-04-15T04:06:21.821Z,98945.41
2023-04-15T04:08:48.352Z,98945.47
2023-04-15T04:11:14.913Z,98943.13
2023-04-15T04:13:41.522Z,98946.56
2023-04-15T04:16:10.978Z,98942.47
2023-04-15T04:18:37.604Z,98942.59
2023-04-15T04:21:04.230Z,98941.75
2023-04-15T04:23:33.272Z,98940.91
2023-04-15T04:25:59.896Z,98948.22
2023-04-15T04:28:30.776Z,98953.94
2023-04-15T04:30:59.654Z,98949.13
2023-04-15T04:33:28.682Z,98942.03
2023-04-15T04:35:55.243Z,98949.94
2023-04-15T04:38:24.139Z,98951.38
2023-04-15T04:40:50.750Z,98937.69
2023-04-15T04:43:17.447Z,98946.34
2023-04-15T04:45:49.340Z,98951.47
2023-04-15T04:48:18.936Z,98951.47
2023-04-15T04:50:48.165Z,98951.38
2023-04-15T04:53:14.990Z,98944.63
2023-04-15T04:55:41.546Z,98951.56
2023-04-15T04:58:10.697Z,98950.81
2023-04-15T05:00:38.515Z,98958.50
2023-04-15T05:03:05.225Z,98946.25
2023-04-15T05:05:35.543Z,98952.28
2023-04-15T05:08:02.242Z,98949.06
2023-04-15T05:10:31.817Z,98955.16
2023-04-15T05:13:00.980Z,98950.03
2023-04-15T05:15:27.544Z,98949.97
2023-04-15T05:17:56.422Z,98958.56
2023-04-15T05:20:27.612Z,98955.16
2023-04-15T05:22:54.189Z,98960.00
2023-04-15T05:25:21.254Z,98955.75
2023-04-15T05:27:51.439Z,98963.50
2023-04-15T05:30:18.068Z,98958.50
2023-04-15T05:32:44.582Z,98960.28
2023-04-15T05:35:11.128Z,98965.38
2023-04-15T05:37:37.698Z,98956.75
2023-04-15T05:40:06.593Z,98961.94
2023-04-15T05:42:38.198Z,98970.59
2023-04-15T05:45:09.357Z,98969.16
2023-04-15T05:47:40.570Z,98972.44
2023-04-15T05:50:07.428Z,98973.31
2023-04-15T05:52:34.029Z,98978.72
2023-04-15T05:55:05.500Z,98977.78
2023-04-15T05:57:32.120Z,98975.28
2023-04-15T06:00:01.793Z,98976.16
2023-04-15T06:02:31.612Z,98979.56
2023-04-15T06:05:01.069Z,98976.84
2023-04-15T06:07:27.842Z,98984.75
2023-04-15T06:09:58.951Z,98996.63
2023-04-15T06:12:25.497Z,98987.31
2023-04-15T06:14:52.086Z,98989.13
2023-04-15T06:17:19.342Z,98994.41
2023-04-15T06:19:50.379Z,98986.78
2023-04-15T06:22:22.269Z,98997.09
2023-04-15T06:24:51.564Z,98991.97
2023-04-15T06:27:18.143Z,99000.59
2023-04-15T06:29:47.701Z,98993.63
2023-04-15T06:32:14.293Z,98998.81
2023-04-15T06:34:43.051Z,98998.91
2023-04-15T06:37:16.262Z,98995.56
2023-04-15T06:39:43.638Z,99002.38
2023-04-15T06:42:15.211Z,98999.03
2023-04-15T06:44:44.484Z,98998.19
2023-04-15T06:47:14.728Z,98999.09
2023-04-15T06:49:41.537Z,98997.44
2023-04-15T06:52:08.234Z,99004.31
2023-04-15T06:54:36.988Z,99000.94
2023-04-15T06:57:03.704Z,99007.94
2023-04-15T06:59:35.456Z,99009.63
2023-04-15T07:02:03.761Z,99005.34
2023-04-15T07:04:32.983Z,99007.00
2023-04-15T07:07:04.433Z,99006.97
2023-04-15T07:09:31.314Z,99004.41
2023-04-15T07:11:57.977Z,99011.38
2023-04-15T07:14:27.877Z,99012.22
2023-04-15T07:16:54.581Z,99010.59
2023-04-15T07:19:21.853Z,99008.88
2023-04-15T07:21:50.636Z,99007.25
2023-04-15T07:24:19.019Z,99020.13
2023-04-15T07:26:46.049Z,99009.81
2023-04-15T07:29:12.602Z,99008.13
2023-04-15T07:31:46.524Z,99018.41
2023-04-15T07:34:17.937Z,99020.97
2023-04-15T07:36:44.514Z,99023.56
2023-04-15T07:39:21.810Z,99016.69
2023-04-15T07:41:49.335Z,99017.50
2023-04-15T07:44:16.762Z,99020.06
2023-04-15T07:46:43.392Z,99014.91
2023-04-15T07:49:13.444Z,99020.03
2023-04-15T07:51:40.061Z,99018.31
2023-04-15T07:54:06.576Z,99021.75
2023-04-15T07:56:33.145Z,99014.03
2023-04-15T07:59:02.364Z,99013.19
2023-04-15T08:01:29.288Z,99016.69
2023-04-15T08:03:59.594Z,99012.41
2023-04-15T08:06:26.230Z,99013.25
2023-04-15T08:08:57.847Z,99015.84
2023-04-15T08:11:24.931Z,99021.84
2023-04-15T08:13:52.529Z,99018.41
2023-04-15T08:16:24.665Z,99020.97
2023-04-15T08:18:53.225Z,99027.00
2023-04-15T08:21:22.882Z,99025.25
2023-04-15T08:23:53.443Z,99025.22
2023-04-15T08:26:21.329Z,99020.97
2023-04-15T08:28:51.690Z,99038.13
2023-04-15T08:31:21.973Z,99038.97
2023-04-15T08:33:52.539Z,99044.13
2023-04-15T08:36:21.561Z,99053.53
2023-04-15T08:38:48.164Z,99048.41
2023-04-15T08:41:23.657Z,99047.53
2023-04-15T08:43:59.211Z,99049.22
2023-04-15T08:46:29.255Z,99045.81
2023-04-15T08:48:59.267Z,99044.91
2023-04-15T08:51:31.133Z,99043.19
2023-04-15T08:53:57.826Z,99042.34
2023-04-15T08:56:33.013Z,99042.34
2023-04-15T08:59:02.915Z,99044.91
2023-04-15T09:01:30.053Z,99044.09
2023-04-15T09:03:57.243Z,99043.19
2023-04-15T09:06:25.084Z,99049.19
2023-04-15T09:08:54.803Z,99044.91
2023-04-15T09:11:22.391Z,99050.91
2023-04-15T09:13:52.308Z,99058.56
2023-04-15T09:16:19.020Z,99042.22
2023-04-15T09:18:45.722Z,99050.84
2023-04-15T09:21:17.679Z,99053.44
2023-04-15T09:24:02.508Z,99052.66
2023-04-15T09:26:40.238Z,99066.41
2023-04-15T09:29:13.511Z,99059.53
2023-04-15T09:31:41.144Z,99059.53
2023-04-15T09:34:10.339Z,99068.97
2023-04-15T09:36:56.986Z,99062.94
2023-04-15T09:39:23.577Z,99071.53
2023-04-15T09:42:09.095Z,99057.00
2023-04-15T09:44:35.885Z,99056.97
2023-04-15T09:47:02.500Z,99061.25
2023-04-15T09:49:29.272Z,99059.53
2023-04-15T09:52:06.056Z,99069.84
2023-04-15T09:54:36.789Z,99066.41
2023-04-15T09:57:15.826Z,99060.41
2023-04-15T09:59:42.389Z,99071.53
2023-04-15T10:02:12.881Z,99067.25
2023-04-15T10:04:41.654Z,99070.69
2023-04-15T10:07:12.779Z,99078.38
2023-04-15T10:09:40.203Z,99067.25
2023-04-15T10:12:09.211Z,99077.53
2023-04-15T10:14:41.530Z,99079.25
2023-04-15T10:17:11.751Z,99080.09
2023-04-15T10:19:38.639Z,99088.66
2023-04-15T10:22:08.153Z,99081.78
2023-04-15T10:24:38.970Z,99085.22
2023-04-15T10:27:06.444Z,99077.53
2023-04-15T10:29:33.802Z,99086.94
2023-04-15T10:32:01.759Z,99076.69
2023-04-15T10:34:29.995Z,99076.69
2023-04-15T10:36:58.379Z,99085.28
2023-04-15T10:39:48.632Z,99078.38
2023-04-15T10:42:20.539Z,99076.66
2023-04-15T10:44:54.213Z,99093.84
2023-04-15T10:47:22.053Z,99097.19
2023-04-15T10:49:51.640Z,99103.16
2023-04-15T10:52:23.621Z,99105.72
2023-04-15T10:55:04.068Z,99115.19
2023-04-15T10:57:45.570Z,99102.34
2023-04-15T11:00:15.527Z,99097.22
2023-04-15T11:02:48.149Z,99106.69
2023-04-15T11:05:19.496Z,99105.78
2023-04-15T11:08:01.212Z,99099.78
2023-04-15T11:10:31.186Z,99107.50
2023-04-15T11:13:13.727Z,99110.13
2023-04-15T11:15:48.544Z,99106.69
2023-04-15T11:18:15.044Z,99110.97
2023-04-15T11:21:04.755Z,99106.69
2023-04-15T11:23:47.945Z,99102.41
2023-04-15T11:26:15.497Z,99104.94
2023-04-15T11:28:46.093Z,99102.41
2023-04-15T11:31:14.613Z,99100.69
2023-04-15T11:34:04.965Z,99100.69
2023-04-15T11:36:34.505Z,99103.28
2023-04-15T11:39:07.395Z,99101.53
2023-04-15T11:41:38.218Z,99106.69
2023-04-15T11:44:18.859Z,99106.69
2023-04-15T11:46:47.734Z,99105.81
2023-04-15T11:49:27.641Z,99105.84
2023-04-15T11:51:54.257Z,99098.13
2023-04-15T11:54:26.119Z,99108.41
2023-04-15T11:56:53.687Z,99109.28
2023-04-15T11:59:20.493Z,99116.13
2023-04-15T12:01:49.978Z,99110.13
2023-04-15T12:04:23.222Z,99105.81
2023-04-15T12:06:51.846Z,99111.81
2023-04-15T12:09:20.949Z,99109.22
2023-04-15T12:11:48.828Z,99104.06
2023-04-15T12:14:25.753Z,99109.16
2023-04-15T12:16:58.210Z,99104.00
2023-04-15T12:19:30.652Z,99110.88
2023-04-15T12:22:02.552Z,99109.13
2023-04-15T12:24:35.617Z,99107.41
2023-04-15T12:27:06.954Z,99103.91
2023-04-15T12:29:38.736Z,99116.88
2023-04-15T12:32:10.426Z,99114.28
2023-04-15T12:34:41.904Z,99118.56
2023-04-15T12:37:10.731Z,99116.00
2023-04-15T12:39:45.308Z,99121.13
2023-04-15T12:42:14.949Z,99122.91
2023-04-15T12:44:44.204Z,99116.03
2023-04-15T12:47:15.814Z,99120.38
2023-04-15T12:49:42.406Z,99121.13
2023-04-15T12:52:13.677Z,99125.38
2023-04-15T12:54:40.846Z,99130.50
2023-04-15T12:57:10.817Z,99127.09
2023-04-15T13:02:24.607Z,99133.16
2023-04-15T13:04:58.467Z,99122.84
2023-04-15T13:07:49.906Z,99126.31
2023-04-15T13:10:36.704Z,99137.44
2023-04-15T13:13:03.584Z,99138.31
2023-04-15T13:18:45.582Z,99125.50
2023-04-15T13:24:44.760Z,99128.00
2023-04-15T13:27:11.669Z,99123.72
2023-04-15T13:29:38.759Z,99128.88
2023-04-15T13:32:06.036Z,99143.47
2023-04-15T13:34:32.642Z,99135.78
2023-04-15T13:37:06.080Z,99138.34
2023-04-15T13:39:32.593Z,99144.31
2023-04-15T13:41:59.337Z,99134.88
2023-04-15T13:44:25.938Z,99144.31
2023-04-15T13:46:52.899Z,99149.47
2023-04-15T13:49:19.539Z,99146.91
2023-04-15T13:51:50.856Z,99152.09
2023-04-15T13:54:17.501Z,99152.13
2023-04-15T13:56:46.445Z,99152.09
2023-04-15T13:59:13.183Z,99156.38
2023-04-15T14:01:42.020Z,99152.09
2023-04-15T14:04:11.125Z,99152.03
2023-04-15T14:06:40.531Z,99155.31
2023-04-15T14:09:07.238Z,99160.47
2023-04-15T14:11:36.704Z,99154.47
2023-04-15T14:14:03.513Z,99148.47
2023-04-15T14:16:30.275Z,99153.72
2023-04-15T14:18:58.086Z,99160.63
2023-04-15T14:21:24.765Z,99175.19
2023-04-15T14:23:53.655Z,99166.59
2023-04-15T14:26:20.392Z,99165.75
2023-04-15T14:28:48.454Z,99168.34
2023-04-15T14:31:17.700Z,99177.81
2023-04-15T14:33:44.314Z,99181.25
2023-04-15T14:36:13.399Z,99177.81
2023-04-15T14:38:40.199Z,99176.09
2023-04-15T14:41:08.147Z,99180.38
2023-04-15T14:43:37.316Z,99182.97
2023-04-15T14:46:04.094Z,99192.41
2023-04-15T14:48:31.881Z,99188.13
2023-04-15T14:50:59.224Z,99184.72
2023-04-15T14:53:25.982Z,99190.69
2023-04-15T14:55:52.594Z,99193.31
2023-04-15T14:58:19.170Z,99195.03
2023-04-15T15:00:46.094Z,99191.59
2023-04-15T15:03:15.799Z,99182.94
2023-04-15T15:05:44.821Z,99195.03
2023-04-15T15:08:12.170Z,99196.75
2023-04-15T15:10:49.504Z,99201.03
2023-04-15T15:13:17.452Z,99201.91
2023-04-15T15:15:46.422Z,99207.03
2023-04-15T15:18:13.146Z,99213.06
2023-04-15T15:20:39.879Z,99212.19
2023-04-15T15:23:06.510Z,99212.22
2023-04-15T15:25:33.088Z,99219.06
2023-04-15T15:28:01.880Z,99221.66
2023-04-15T15:30:39.868Z,99223.38
2023-04-15T15:33:55.949Z,99229.38
2023-04-15T15:36:24.997Z,99235.38
2023-04-15T15:38:54.292Z,99242.25
2023-04-15T15:41:21.266Z,99241.34
2023-04-15T15:43:58.767Z,99249.97
2023-04-15T15:46:31.752Z,99252.53
2023-04-15T15:49:19.704Z,99257.66
2023-04-15T15:51:46.907Z,99267.97
2023-04-15T15:54:13.995Z,99261.09
2023-04-15T15:56:45.263Z,99269.59
2023-04-15T15:59:11.804Z,99273.88
2023-04-15T16:01:44.519Z,99266.94
2023-04-15T16:04:22.504Z,99281.44
2023-04-15T16:09:31.790Z,99283.81
2023-04-15T16:12:02.849Z,99282.22
2023-04-15T16:14:29.860Z,99270.28
2023-04-15T16:17:02.517Z,99272.03
2023-04-15T16:19:55.605Z,99266.88
2023-04-15T16:22:30.545Z,99273.75
2023-04-15T16:24:57.117Z,99267.84
2023-04-15T16:27:23.718Z,99266.91
2023-04-15T16:29:52.552Z,99268.69
2023-04-15T16:32:19.505Z,99266.91
2023-04-15T16:34:48.417Z,99282.31
2023-04-15T16:37:17.193Z,99277.19
2023-04-15T16:39:46.106Z,99285.78
2023-04-15T16:42:12.711Z,99290.97
2023-04-15T16:44:39.275Z,99285.88
2023-04-15T16:47:05.946Z,99297.84
2023-04-15T16:49:35.596Z,99296.94
2023-04-15T16:52:04.716Z,99300.41
2023-04-15T16:54:32.726Z,99311.50
2023-04-15T16:56:59.311Z,99317.50
2023-04-15T16:59:30.717Z,99320.94
2023-04-15T17:01:57.468Z,99320.81
2023-04-15T17:04:27.405Z,99323.38
2023-04-15T17:06:56.436Z,99325.13
2023-04-15T17:09:22.998Z,99338.59
2023-04-15T17:11:54.579Z,99331.84
2023-04-15T17:14:23.667Z,99338.56
2023-04-15T17:16:52.498Z,99337.66
2023-04-15T17:19:23.588Z,99345.44
2023-04-15T17:21:54.264Z,99345.38
2023-04-15T17:24:21.496Z,99349.78
2023-04-15T17:26:48.037Z,99348.16
2023-04-15T17:29:14.645Z,99356.63
2023-04-15T17:31:43.537Z,99353.94
2023-04-15T17:34:11.643Z,99355.66
2023-04-15T17:36:39.166Z,99362.50
2023-04-15T17:39:06.203Z,99367.63
2023-04-15T17:41:35.403Z,99376.13
2023-04-15T17:44:04.532Z,99368.41
2023-04-15T17:46:32.010Z,99372.63
2023-04-15T17:48:58.583Z,99377.03
2023-04-15T17:51:28.431Z,99374.28
2023-04-15T17:53:55.114Z,99379.41
2023-04-15T17:56:22.399Z,99381.81
2023-04-15T17:58:48.962Z,99388.66
2023-04-15T18:01:15.507Z,99389.66
2023-04-15T18:03:47.229Z,99391.47
2023-04-15T18:06:16.905Z,99393.22
2023-04-15T18:08:45.942Z,99393.25
2023-04-15T18:11:16.066Z,99401.59
2023-04-15T18:13:43.707Z,99400.72
2023-04-15T18:16:13.268Z,99406.72
2023-04-15T18:18:44.321Z,99406.59
2023-04-15T18:21:13.430Z,99413.44
2023-04-15T18:23:40.396Z,99415.84
2023-04-15T18:26:23.978Z,99414.97
2023-04-15T18:28:54.878Z,99429.31
2023-04-15T18:31:37.496Z,99430.28
2023-04-15T18:34:06.646Z,99438.16
2023-04-15T18:36:33.495Z,99434.47
2023-04-15T18:39:00.107Z,99442.19
2023-04-15T18:41:29.763Z,99438.84
2023-04-15T18:44:43.600Z,99454.13
2023-04-15T18:47:01.469Z,99466.75
2023-04-15T18:49:35.263Z,99469.31
2023-04-15T18:52:10.929Z,99467.50
2023-04-15T18:54:40.858Z,99477.94
2023-04-15T18:57:10.674Z,99482.25
2023-04-15T18:59:47.982Z,99475.53
2023-04-15T19:02:14.577Z,99478.09
2023-04-15T19:04:49.936Z,99479.84
2023-04-15T19:07:16.641Z,99493.38
2023-04-15T19:09:45.735Z,99491.50
2023-04-15T19:12:19.521Z,99498.28
2023-04-15T19:14:48.591Z,99508.22
2023-04-15T19:17:17.561Z,99505.47
2023-04-15T19:19:54.911Z,99507.31
2023-04-15T19:22:29.517Z,99508.38
2023-04-15T19:25:03.430Z,99509.38
2023-04-15T19:27:59.987Z,99513.72
2023-04-15T19:30:36.923Z,99517.94
2023-04-15T19:33:31.245Z,99518.03
2023-04-15T19:36:02.286Z,99524.88
2023-04-15T19:38:29.126Z,99530.84
2023-04-15T19:40:58.074Z,99531.66
2023-04-15T19:43:27.726Z,99531.72
2023-04-15T19:45:58.988Z,99534.31
2023-04-15T19:48:28.130Z,99534.38
2023-04-15T19:50:57.186Z,99537.81
2023-04-15T19:53:25.651Z,99539.84
2023-04-15T19:55:57.241Z,99545.72
2023-04-15T19:58:26.136Z,99539.06
2023-04-15T20:00:52.681Z,99540.00
2023-04-15T20:03:19.692Z,99544.41
2023-04-15T20:05:46.695Z,99546.22
2023-04-15T20:08:13.306Z,99548.00
2023-04-15T20:10:39.848Z,99548.84
2023-04-15T20:13:06.585Z,99553.97
2023-04-15T20:15:33.218Z,99552.34
2023-04-15T20:17:59.822Z,99552.34
2023-04-15T20:20:26.688Z,99553.13
2023-04-15T20:22:53.284Z,99556.34
2023-04-15T20:25:19.914Z,99554.69
2023-04-15T20:27:48.711Z,99547.75
2023-04-15T20:30:15.641Z,99549.44
2023-04-15T20:32:44.669Z,99552.13
2023-04-15T20:35:11.340Z,99553.97
2023-04-15T20:37:38.291Z,99559.00
2023-04-15T20:40:05.362Z,99559.72
2023-04-15T20:42:34.760Z,99557.94
2023-04-15T20:45:03.921Z,99558.06
2023-04-15T20:47:30.572Z,99561.69
2023-04-15T20:49:57.245Z,99555.69
2023-04-15T20:52:23.924Z,99570.22
2023-04-15T20:54:51.257Z,99571.94
2023-04-15T20:57:18.332Z,99569.31
2023-04-15T20:59:44.912Z,99566.66
2023-04-15T21:02:11.738Z,99572.72
2023-04-15T21:04:38.860Z,99575.28
2023-04-15T21:07:05.650Z,99580.81
2023-04-15T21:09:34.476Z,99581.28
2023-04-15T21:12:08.328Z,99585.56
2023-04-15T21:14:42.295Z,99590.19
2023-04-15T21:17:11.168Z,99599.94
2023-04-15T21:19:38.275Z,99603.50
2023-04-15T21:22:04.928Z,99605.50
2023-04-15T21:24:31.517Z,99607.25
2023-04-15T21:27:02.032Z,99612.38
2023-04-15T21:29:28.921Z,99601.38
2023-04-15T21:31:55.805Z,99615.97
2023-04-15T21:34:22.433Z,99610.03
2023-04-15T21:36:49.139Z,99614.13
2023-04-15T21:39:16.077Z,99616.72
2023-04-15T21:41:42.716Z,99624.06
2023-04-15T21:44:09.312Z,99618.97
2023-04-15T21:46:38.289Z,99622.53
2023-04-15T21:49:07.053Z,99615.75
2023-04-15T21:51:33.866Z,99620.53
2023-04-15T21:54:00.479Z,99625.88
2023-04-15T21:56:27.054Z,99623.19
2023-04-15T21:58:56.933Z,99626.31
2023-04-15T22:01:24.492Z,99632.63
2023-04-15T22:03:51.514Z,99621.75
2023-04-15T22:06:23.661Z,99635.25
2023-04-15T22:08:57.095Z,99628.50
2023-04-15T22:11:27.634Z,99640.63
2023-04-15T22:13:58.552Z,99641.38
2023-04-15T22:16:26.624Z,99640.31
2023-04-15T22:18:58.247Z,99633.75
2023-04-15T22:21:24.782Z,99639.47
2023-04-15T22:23:51.739Z,99636.34
2023-04-15T22:26:18.431Z,99640.09
2023-04-15T22:28:45.311Z,99635.16
2023-04-15T22:31:14.977Z,99639.22
2023-04-15T22:33:41.626Z,99643.19
2023-04-15T22:36:08.146Z,99642.03
2023-04-15T22:38:37.000Z,99642.16
2023-04-15T22:41:08.325Z,99639.38
2023-04-15T22:43:34.926Z,99638.09
2023-04-15T22:46:01.753Z,99645.78
2023-04-15T22:48:30.669Z,99644.69
2023-04-15T22:50:59.546Z,99651.91
2023-04-15T22:53:26.413Z,99651.72
2023-04-15T22:55:56.010Z,99643.66
2023-04-15T22:58:22.677Z,99647.41
2023-04-15T23:00:51.517Z,99645.88
2023-04-15T23:03:20.352Z,99643.03
2023-04-15T23:05:47.451Z,99644.06
2023-04-15T23:08:14.084Z,99649.19
2023-04-15T23:10:44.663Z,99648.00
2023-04-15T23:13:11.258Z,99645.19
2023-04-15T23:15:37.818Z,99642.78
2023-04-15T23:18:04.390Z,99645.56
2023-04-15T23:20:30.994Z,99643.56
2023-04-15T23:22:57.599Z,99636.84
2023-04-15T23:25:24.284Z,99643.38
2023-04-15T23:27:50.867Z,99660.66
2023-04-15T23:30:17.439Z,99652.28
2023-04-15T23:32:44.047Z,99655.50
2023-04-15T23:35:12.987Z,99659.91
2023-04-15T23:37:39.523Z,99658.16
2023-04-15T23:40:11.707Z,99662.66
2023-04-15T23:42:38.251Z,99657.56
2023-04-15T23:45:05.141Z,99664.56
2023-04-15T23:47:31.765Z,99654.78
2023-04-15T23:50:00.722Z,99660.44
2023-04-15T23:52:27.693Z,99658.69
2023-04-15T23:54:56.481Z,99659.50
2023-04-15T23:57:23.080Z,99667.66
2023-04-15T23:59:49.663Z,99656.09
